Time;durP1;ratioP1;P1;durP2;ratioP2;P2;SDS_P1;SDS_P2;PMS_P1;PMS_P2;Temp;Humidity;BMP_temperature;BMP_pressure;BME280_temperature;BME280_humidity;BME280_pressure;Samples;Min_cycle;Max_cycle;Signal;HPM_P1;HPM_P2
2022/03/23 00:01:51;;;;;;;23.67;15.78;;;;;;;2.55;62.55;102220.77;1760566;80;21570;-69
2022/03/23 00:04:19;;;;;;;26.85;14.83;;;;;;;2.52;62.67;102212.35;1770829;80;21611;-69
2022/03/23 00:06:46;;;;;;;27.93;14.40;;;;;;;2.51;62.83;102218.12;1773798;80;21998;-68
2022/03/23 00:09:14;;;;;;;25.82;15.45;;;;;;;2.50;62.98;102213.84;1775168;80;21011;-68
2022/03/23 00:11:44;;;;;;;26.42;16.62;;;;;;;2.49;63.04;102212.67;1774212;79;21073;-68
2022/03/23 00:14:15;;;;;;;26.07;16.15;;;;;;;2.46;63.06;102212.50;1774971;80;21069;-67
2022/03/23 00:16:44;;;;;;;29.63;16.93;;;;;;;2.44;63.08;102209.72;1759324;80;21636;-68
2022/03/23 00:19:12;;;;;;;30.30;16.97;;;;;;;2.42;63.09;102201.95;1762854;80;21022;-69
2022/03/23 00:21:40;;;;;;;31.50;17.40;;;;;;;2.41;63.04;102204.77;1759065;80;21126;-69
2022/03/23 00:24:09;;;;;;;31.35;17.42;;;;;;;2.40;63.00;102199.14;1759909;80;21035;-69
2022/03/23 00:26:38;;;;;;;31.80;18.05;;;;;;;2.38;62.98;102192.72;1775252;80;21077;-68
2022/03/23 00:29:06;;;;;;;31.57;16.87;;;;;;;2.35;62.94;102197.82;1762297;79;21594;-68
2022/03/23 00:31:35;;;;;;;34.15;17.42;;;;;;;2.33;62.89;102191.05;1743573;81;21244;-68
2022/03/23 00:34:03;;;;;;;31.75;17.40;;;;;;;2.32;62.91;102200.78;1740682;80;21034;-68
2022/03/23 00:36:34;;;;;;;31.17;18.17;;;;;;;2.29;62.88;102195.01;1760556;81;21066;-70
2022/03/23 00:39:03;;;;;;;36.83;20.48;;;;;;;2.27;62.87;102192.55;1750448;81;21667;-72
2022/03/23 00:41:31;;;;;;;31.07;16.10;;;;;;;2.26;62.88;102190.05;1765817;80;21030;-69
2022/03/23 00:44:00;;;;;;;27.87;14.80;;;;;;;2.24;62.91;102187.59;1775562;80;21210;-69
2022/03/23 00:46:29;;;;;;;25.30;13.35;;;;;;;2.25;62.90;102185.78;1775365;80;21565;-69
2022/03/23 00:48:58;;;;;;;22.82;12.93;;;;;;;2.22;62.92;102179.02;1773241;80;21073;-68
2022/03/23 00:51:28;;;;;;;23.65;12.37;;;;;;;2.22;62.96;102179.02;1752698;80;21018;-69
2022/03/23 00:53:55;;;;;;;22.35;11.70;;;;;;;2.21;62.98;102177.88;1775235;80;21541;-69
2022/03/23 00:56:23;;;;;;;24.72;13.32;;;;;;;2.20;63.01;102181.47;1773519;80;21023;-69
2022/03/23 00:58:50;;;;;;;22.98;12.15;;;;;;;2.18;63.05;102176.37;1763970;80;21082;-69
2022/03/23 01:01:19;;;;;;;22.62;12.55;;;;;;;2.16;63.11;102177.52;1749101;80;21070;-69
2022/03/23 01:03:48;;;;;;;23.38;12.43;;;;;;;2.14;63.14;102174.20;1775294;80;21121;-69
2022/03/23 01:06:17;;;;;;;24.30;12.63;;;;;;;2.14;63.20;102174.20;1756503;80;21054;-70
2022/03/23 01:08:45;;;;;;;25.08;12.45;;;;;;;2.39;62.66;102173.27;1774720;80;21293;-69
2022/03/23 01:11:14;;;;;;;23.27;12.23;;;;;;;2.48;62.39;102170.97;1775244;80;21463;-71
2022/03/23 01:13:42;;;;;;;24.02;12.98;;;;;;;2.52;62.32;102162.23;1755716;80;21035;-70
2022/03/23 01:16:12;;;;;;;24.87;12.78;;;;;;;2.55;62.26;102165.87;1771607;80;21038;-69
2022/03/23 01:18:41;;;;;;;22.00;13.20;;;;;;;2.58;62.19;102157.12;1774138;80;21517;-70
2022/03/23 01:21:13;;;;;;;25.60;13.93;;;;;;;2.61;62.13;102160.44;1774745;80;21912;-68
2022/03/23 01:23:45;;;;;;;25.72;13.78;;;;;;;2.63;62.04;102154.48;1774624;80;21019;-69
2022/03/23 01:26:13;;;;;;;22.65;12.90;;;;;;;2.66;61.96;102155.48;1772239;80;21078;-69
2022/03/23 01:28:42;;;;;;;26.95;13.72;;;;;;;2.67;61.84;102150.05;1758659;80;21066;-69
2022/03/23 01:31:12;;;;;;;26.12;12.78;;;;;;;2.68;61.81;102150.37;1769877;80;20979;-69
2022/03/23 01:33:42;;;;;;;24.02;13.03;;;;;;;2.71;61.72;102145.27;1775322;80;21201;-70
2022/03/23 01:36:12;;;;;;;22.77;11.73;;;;;;;2.71;61.65;102144.77;1766073;80;20999;-70
2022/03/23 01:38:40;;;;;;;21.95;11.55;;;;;;;2.70;61.80;102142.27;1756758;80;21759;-69
2022/03/23 01:41:09;;;;;;;24.70;12.10;;;;;;;2.65;61.78;102138.83;1768537;80;21078;-69
2022/03/23 01:43:36;;;;;;;22.27;12.63;;;;;;;2.62;61.82;102144.93;1758537;80;20996;-69
2022/03/23 01:46:03;;;;;;;26.73;13.20;;;;;;;2.61;61.87;102139.33;1775160;80;21253;-69
2022/03/23 01:48:32;;;;;;;23.60;12.58;;;;;;;2.63;61.83;102138.66;1773939;79;21102;-70
2022/03/23 01:50:59;;;;;;;23.10;12.68;;;;;;;2.64;61.83;102140.33;1775404;80;21107;-68
2022/03/23 01:53:27;;;;;;;26.62;12.93;;;;;;;2.65;61.88;102140.64;1775308;80;21025;-68
2022/03/23 01:55:54;;;;;;;23.50;12.30;;;;;;;2.62;61.91;102140.97;1775849;80;21224;-68
2022/03/23 01:58:22;;;;;;;24.05;12.50;;;;;;;2.64;61.88;102133.73;1774216;80;21050;-68
2022/03/23 02:00:51;;;;;;;26.00;13.32;;;;;;;2.65;61.91;102132.73;1774976;80;21206;-68
2022/03/23 02:03:20;;;;;;;25.15;12.37;;;;;;;2.62;61.93;102135.20;1774813;80;21058;-69
2022/03/23 02:05:50;;;;;;;24.67;12.58;;;;;;;2.61;61.99;102130.92;1774892;80;21473;-68
2022/03/23 02:08:21;;;;;;;16.37;8.53;;;;;;;2.60;62.06;102129.28;1770897;80;21446;-68
2022/03/23 02:10:49;;;;;;;22.07;12.10;;;;;;;2.58;62.13;102128.11;1754031;80;21242;-69
2022/03/23 02:13:20;;;;;;;23.22;12.43;;;;;;;2.57;62.16;102126.47;1752819;80;21046;-68
2022/03/23 02:15:48;;;;;;;23.45;11.80;;;;;;;2.56;62.17;102120.84;1758619;80;21038;-68
2022/03/23 02:18:15;;;;;;;23.73;12.63;;;;;;;2.55;62.17;102119.20;1746024;80;21074;-68
2022/03/23 02:20:45;;;;;;;24.43;12.05;;;;;;;2.53;62.19;102123.84;1743527;80;21068;-68
2022/03/23 02:23:12;;;;;;;25.52;12.63;;;;;;;2.54;62.28;102119.39;1760597;80;21868;-69
2022/03/23 02:25:40;;;;;;;26.95;13.35;;;;;;;2.52;62.32;102122.17;1767749;80;21023;-69
2022/03/23 02:28:08;;;;;;;26.12;13.58;;;;;;;2.51;62.43;102117.90;1765521;80;21257;-69
2022/03/23 02:30:35;;;;;;;23.22;12.65;;;;;;;2.49;62.51;102120.36;1739842;80;21046;-69
2022/03/23 02:33:09;;;;;;;25.32;12.88;;;;;;;2.47;62.57;102115.73;1757564;80;21046;-69
2022/03/23 02:35:40;;;;;;;26.15;13.58;;;;;;;2.49;62.63;102119.05;1775629;80;21223;-70
2022/03/23 02:38:10;;;;;;;24.10;12.60;;;;;;;2.47;62.73;102115.73;1774257;80;21011;-69
2022/03/23 02:40:38;;;;;;;28.50;13.62;;;;;;;2.46;62.88;102112.28;1775263;80;21208;-69
2022/03/23 02:43:07;;;;;;;24.90;13.55;;;;;;;2.45;63.00;102112.45;1775371;80;22026;-70
2022/03/23 02:45:35;;;;;;;22.62;13.28;;;;;;;2.43;63.15;102107.34;1775471;79;21549;-68
2022/03/23 02:48:06;;;;;;;25.70;13.95;;;;;;;2.42;63.32;102109.65;1775033;80;21143;-69
2022/03/23 02:50:35;;;;;;;27.95;13.38;;;;;;;2.44;63.39;102105.55;1746145;80;27265;-68
2022/03/23 03:02:19;;;;;;;25.35;13.22;;;;;;;2.46;63.54;102099.09;1748734;80;21221;-69
2022/03/23 03:04:47;;;;;;;26.75;14.00;;;;;;;2.48;63.56;102094.99;1766422;80;21696;-68
2022/03/23 03:07:14;;;;;;;29.75;13.98;;;;;;;2.50;63.46;102096.95;1758798;80;20996;-69
2022/03/23 03:09:42;;;;;;;24.43;13.30;;;;;;;2.51;63.39;102098.62;1761180;80;21272;-70
2022/03/23 03:12:11;;;;;;;22.90;13.30;;;;;;;2.52;63.30;102099.75;1759950;80;21008;-70
2022/03/23 03:14:40;;;;;;;23.73;12.73;;;;;;;2.51;63.22;102097.30;1760766;80;21569;-69
2022/03/23 03:17:07;;;;;;;23.20;13.90;;;;;;;2.51;63.17;102094.66;1755954;80;21066;-70
2022/03/23 03:19:35;;;;;;;25.37;13.20;;;;;;;2.46;63.17;102091.18;1759729;80;21534;-69
2022/03/23 03:22:04;;;;;;;24.52;13.25;;;;;;;2.46;63.15;102093.82;1763511;80;21067;-70
2022/03/23 03:24:33;;;;;;;22.22;11.80;;;;;;;2.45;63.14;102097.45;1760718;80;22078;-70
2022/03/23 03:27:01;;;;;;;20.82;12.70;;;;;;;2.44;63.12;102089.73;1756816;80;22319;-70
2022/03/23 03:29:29;;;;;;;23.60;12.80;;;;;;;2.42;63.09;102089.88;1756504;80;21051;-70
2022/03/23 03:31:57;;;;;;;24.15;12.80;;;;;;;2.40;63.06;102087.88;1759890;80;21101;-69
2022/03/23 03:34:25;;;;;;;21.05;12.30;;;;;;;2.40;63.12;102087.06;1760744;79;21027;-69
2022/03/23 03:36:54;;;;;;;24.05;12.78;;;;;;;2.40;63.15;102087.06;1755510;80;21110;-69
2022/03/23 03:39:21;;;;;;;22.17;11.93;;;;;;;2.41;63.19;102090.05;1764434;80;21660;-69
2022/03/23 03:41:49;;;;;;;22.60;12.07;;;;;;;2.41;63.22;102082.96;1764668;80;21171;-68
2022/03/23 03:44:16;;;;;;;21.68;11.57;;;;;;;2.40;63.21;102077.34;1766763;81;21064;-70
2022/03/23 03:46:45;;;;;;;19.87;11.60;;;;;;;2.41;63.23;102076.37;1752789;80;21056;-70
2022/03/23 03:49:15;;;;;;;24.17;12.83;;;;;;;2.43;63.26;102071.73;1767427;80;21509;-69
2022/03/23 03:51:45;;;;;;;26.70;11.97;;;;;;;2.46;63.24;102070.58;1783433;80;21162;-70
2022/03/23 03:54:13;;;;;;;22.10;12.18;;;;;;;2.48;63.18;102065.48;1778356;80;20999;-69
2022/03/23 03:56:41;;;;;;;24.52;12.35;;;;;;;2.51;63.10;102073.56;1757632;80;21930;-68
2022/03/23 03:59:10;;;;;;;24.35;12.25;;;;;;;2.53;63.06;102069.77;1776743;80;21495;-68
2022/03/23 04:01:37;;;;;;;22.65;12.23;;;;;;;2.56;63.03;102069.91;1761252;80;21533;-69
2022/03/23 04:04:05;;;;;;;24.80;12.35;;;;;;;2.59;62.96;102063.80;1760815;80;21245;-69
2022/03/23 04:06:33;;;;;;;22.30;12.25;;;;;;;2.64;62.87;102061.19;1755006;80;21074;-71
2022/03/23 04:09:01;;;;;;;19.85;11.53;;;;;;;2.67;62.74;102053.76;1769578;80;21096;-68
2022/03/23 04:11:30;;;;;;;24.32;11.65;;;;;;;2.71;62.61;102057.70;1777309;80;20948;-69
2022/03/23 04:13:57;;;;;;;23.70;11.57;;;;;;;2.75;62.47;102054.22;1776757;80;21573;-69
2022/03/23 04:16:26;;;;;;;21.23;11.90;;;;;;;2.76;62.30;102051.91;1757316;80;21292;-69
2022/03/23 04:18:54;;;;;;;23.52;12.10;;;;;;;2.80;62.20;102054.56;1756763;80;21609;-68
2022/03/23 04:21:22;;;;;;;21.20;11.68;;;;;;;2.84;62.04;102055.05;1758200;80;21070;-69
2022/03/23 04:23:51;;;;;;;20.30;11.53;;;;;;;2.90;61.84;102058.33;1761181;80;21201;-70
2022/03/23 04:26:18;;;;;;;22.07;11.65;;;;;;;2.93;61.66;102052.21;1758927;80;21086;-70
2022/03/23 04:28:47;;;;;;;25.02;11.48;;;;;;;2.99;61.56;102055.47;1775957;80;21246;-69
2022/03/23 04:31:15;;;;;;;18.62;11.10;;;;;;;3.05;61.50;102057.43;1776831;80;21039;-69
2022/03/23 04:33:45;;;;;;;22.17;11.65;;;;;;;3.11;61.42;102055.94;1775552;80;21022;-69
2022/03/23 04:36:12;;;;;;;22.77;11.22;;;;;;;3.17;61.32;102058.40;1768427;79;21597;-69
2022/03/23 04:38:41;;;;;;;20.40;11.50;;;;;;;3.23;61.22;102059.04;1739096;80;21562;-70
2022/03/23 04:41:10;;;;;;;21.40;10.78;;;;;;;3.27;61.08;102059.02;1749467;80;21793;-70
2022/03/23 04:43:39;;;;;;;21.27;11.10;;;;;;;3.33;60.95;102060.97;1777279;80;21019;-69
2022/03/23 04:46:06;;;;;;;21.50;11.50;;;;;;;3.40;60.76;102062.42;1777376;80;20999;-69
2022/03/23 04:48:35;;;;;;;26.27;11.88;;;;;;;3.49;60.54;102056.11;1777352;80;21093;-69
2022/03/23 04:51:05;;;;;;;18.77;10.43;;;;;;;3.56;60.31;102055.73;1777384;80;20924;-68
2022/03/23 04:53:32;;;;;;;21.68;11.35;;;;;;;3.64;60.14;102054.86;1762934;80;21233;-69
2022/03/23 04:56:01;;;;;;;22.52;10.72;;;;;;;3.70;59.94;102048.38;1762949;80;21066;-69
2022/03/23 04:58:29;;;;;;;23.05;11.57;;;;;;;3.79;59.78;102051.80;1759214;80;21026;-68
2022/03/23 05:00:57;;;;;;;22.75;10.85;;;;;;;3.88;59.62;102049.91;1761346;80;21155;-69
2022/03/23 05:03:27;;;;;;;22.17;10.78;;;;;;;3.94;59.49;102047.39;1759820;80;21103;-69
2022/03/23 05:05:56;;;;;;;21.55;10.70;;;;;;;4.03;59.33;102044.70;1767598;79;21260;-68
2022/03/23 05:08:24;;;;;;;21.15;10.58;;;;;;;4.14;59.14;102049.55;1759047;79;21113;-68
2022/03/23 05:10:52;;;;;;;21.55;11.83;;;;;;;4.22;58.98;102049.00;1751159;80;21082;-68
2022/03/23 05:13:19;;;;;;;20.40;11.10;;;;;;;4.32;58.87;102050.08;1749856;80;21181;-68
2022/03/23 05:15:49;;;;;;;21.37;10.72;;;;;;;4.41;58.74;102042.39;1749535;80;21047;-69
2022/03/23 05:18:16;;;;;;;21.93;11.08;;;;;;;4.52;58.59;102046.42;1757966;80;21590;-69
2022/03/23 05:20:45;;;;;;;17.92;10.13;;;;;;;4.61;58.40;102036.59;1760879;79;21002;-69
2022/03/23 05:23:13;;;;;;;18.02;10.28;;;;;;;4.68;57.99;102044.13;1763191;80;21046;-70
2022/03/23 05:25:42;;;;;;;21.05;10.23;;;;;;;4.76;57.67;102045.34;1763400;79;21058;-69
2022/03/23 05:28:10;;;;;;;18.02;9.78;;;;;;;4.85;57.47;102044.26;1760604;80;21042;-70
2022/03/23 05:30:37;;;;;;;18.90;10.10;;;;;;;4.94;57.13;102043.17;1759782;79;21143;-70
2022/03/23 05:33:06;;;;;;;18.90;10.13;;;;;;;5.05;56.88;102039.73;1758865;79;21496;-69
2022/03/23 05:35:33;;;;;;;17.70;9.10;;;;;;;5.18;56.54;102049.17;1759982;80;21035;-69
2022/03/23 05:38:03;;;;;;;16.05;9.33;;;;;;;5.29;56.19;102040.75;1761906;80;21121;-68
2022/03/23 05:40:30;;;;;;;17.05;9.20;;;;;;;5.39;55.92;102045.25;1745412;80;21042;-69
2022/03/23 05:42:58;;;;;;;18.30;10.20;;;;;;;5.51;55.56;102035.50;1758396;80;22071;-69
2022/03/23 05:45:26;;;;;;;20.17;10.78;;;;;;;5.63;55.29;102040.64;1759649;80;21030;-70
2022/03/23 05:47:56;;;;;;;19.42;9.90;;;;;;;5.75;54.92;102040.45;1763495;79;21438;-71
2022/03/23 05:50:23;;;;;;;17.92;9.50;;;;;;;5.88;54.50;102043.23;1757896;80;21526;-70
2022/03/23 05:52:51;;;;;;;18.42;10.38;;;;;;;6.00;53.88;102040.13;1755966;80;21042;-70
2022/03/23 05:55:20;;;;;;;17.32;9.25;;;;;;;6.06;53.43;102033.55;1719240;82;21550;-67
2022/03/23 05:57:48;;;;;;;17.52;9.15;;;;;;;6.17;53.23;102030.06;1726807;81;21513;-69
2022/03/23 06:00:16;;;;;;;17.73;9.30;;;;;;;6.25;52.78;102030.76;1726121;81;21064;-70
2022/03/23 06:02:43;;;;;;;17.82;9.65;;;;;;;6.34;52.61;102028.25;1730691;82;21099;-69
2022/03/23 06:05:12;;;;;;;19.40;9.98;;;;;;;6.46;52.44;102027.74;1738284;82;21060;-69
2022/03/23 06:07:39;;;;;;;20.43;10.40;;;;;;;6.56;52.04;102031.69;1731223;82;21543;-68
2022/03/23 06:10:09;;;;;;;18.85;10.30;;;;;;;6.63;51.20;102022.44;1749632;81;21540;-69
2022/03/23 06:12:39;;;;;;;17.92;10.08;;;;;;;6.69;51.13;102024.32;1750285;81;21076;-69
2022/03/23 06:15:10;;;;;;;17.87;10.85;;;;;;;6.78;50.91;102020.50;1724461;82;22180;-69
2022/03/23 06:17:39;;;;;;;17.80;9.70;;;;;;;6.87;50.36;102020.33;1721132;82;21068;-69
2022/03/23 06:20:08;;;;;;;20.10;9.90;;;;;;;6.94;49.80;102009.22;1720976;82;22211;-70
2022/03/23 06:22:37;;;;;;;19.23;10.03;;;;;;;7.01;49.66;102012.23;1721867;81;21108;-70
2022/03/23 06:25:07;;;;;;;18.07;11.20;;;;;;;7.11;49.41;102013.20;1726463;82;21525;-70
2022/03/23 06:27:38;;;;;;;21.55;10.88;;;;;;;7.21;48.76;102016.31;1739094;82;21083;-70
2022/03/23 06:30:08;;;;;;;17.98;10.30;;;;;;;7.29;48.50;102009.47;1728494;82;21084;-69
2022/03/23 06:32:35;;;;;;;17.90;10.32;;;;;;;7.43;48.40;102008.19;1718990;81;21957;-70
2022/03/23 06:35:04;;;;;;;20.37;10.95;;;;;;;7.57;48.19;101999.73;1726941;82;21028;-69
2022/03/23 06:37:32;;;;;;;17.48;10.45;;;;;;;7.71;47.93;101994.77;1722991;82;21083;-69
2022/03/23 06:39:59;;;;;;;20.90;11.00;;;;;;;7.85;46.97;101998.25;1723227;80;21532;-70
2022/03/23 06:42:27;;;;;;;22.87;11.90;;;;;;;7.95;47.10;101996.82;1724915;82;21072;-70
2022/03/23 06:44:55;;;;;;;22.77;11.90;;;;;;;8.09;46.70;101990.17;1723427;82;21133;-69
2022/03/23 06:47:22;;;;;;;21.20;12.23;;;;;;;8.24;46.34;101989.45;1724102;82;21096;-69
2022/03/23 06:49:50;;;;;;;21.37;12.47;;;;;;;8.40;45.94;101986.91;1698153;83;21145;-69
2022/03/23 06:52:17;;;;;;;22.48;11.88;;;;;;;8.55;45.56;101986.67;1701622;83;21086;-69
2022/03/23 06:54:45;;;;;;;20.40;12.47;;;;;;;8.68;45.16;101987.45;1723100;82;21142;-69
2022/03/23 06:57:13;;;;;;;20.70;12.45;;;;;;;8.84;44.80;101985.37;1726865;82;21145;-68
2022/03/23 06:59:41;;;;;;;22.07;12.93;;;;;;;8.99;44.40;101989.13;1727056;80;21038;-70
2022/03/23 07:02:10;;;;;;;25.45;15.28;;;;;;;9.08;43.99;101985.16;1737678;80;21072;-69
2022/03/23 07:04:38;;;;;;;20.50;12.73;;;;;;;9.19;43.95;101983.18;1738561;82;21029;-69
2022/03/23 07:07:07;;;;;;;25.68;15.53;;;;;;;9.32;43.46;101976.97;1717056;82;21090;-69
2022/03/23 07:09:39;;;;;;;26.73;15.58;;;;;;;9.41;42.65;101981.02;1756765;80;21525;-70
2022/03/23 07:12:11;;;;;;;23.57;15.53;;;;;;;9.54;42.27;101978.77;1773825;80;21078;-70
2022/03/23 07:14:40;;;;;;;23.98;15.55;;;;;;;9.65;42.07;101977.28;1769775;80;21082;-70
2022/03/23 07:17:07;;;;;;;24.77;16.70;;;;;;;9.77;41.95;101980.38;1730895;82;21492;-69
2022/03/23 07:19:35;;;;;;;23.07;16.40;;;;;;;9.90;41.49;101970.09;1705104;84;21063;-69
2022/03/23 07:22:04;;;;;;;27.85;17.45;;;;;;;10.01;41.01;101973.41;1725860;82;21122;-70
2022/03/23 07:24:32;;;;;;;26.60;17.87;;;;;;;10.10;40.20;101968.59;1732445;82;21569;-70
2022/03/23 07:27:03;;;;;;;24.23;16.20;;;;;;;10.18;40.18;101971.00;1728538;82;21070;-69
2022/03/23 07:29:30;;;;;;;29.23;18.37;;;;;;;10.29;39.89;101965.48;1733890;82;21048;-70
2022/03/23 07:31:57;;;;;;;27.65;17.65;;;;;;;10.43;39.72;101961.66;1733972;82;21008;-70
2022/03/23 07:34:25;;;;;;;30.40;19.17;;;;;;;10.55;39.43;101963.87;1731948;82;22204;-69
2022/03/23 07:36:52;;;;;;;28.60;18.12;;;;;;;10.68;38.90;101964.77;1731138;82;21028;-69
2022/03/23 07:39:25;;;;;;;28.47;20.08;;;;;;;10.78;38.84;101966.39;1730981;82;21035;-69
2022/03/23 07:41:56;;;;;;;29.45;20.88;;;;;;;10.92;38.66;101965.19;1730970;82;21063;-70
2022/03/23 07:44:21;;;;;;;27.15;19.48;;;;;;;11.04;38.05;101963.39;1730724;82;21016;-68
2022/03/23 07:46:49;;;;;;;29.37;20.57;;;;;;;11.19;37.71;101959.52;1726277;81;21916;-70
2022/03/23 07:49:20;;;;;;;29.10;19.98;;;;;;;11.35;37.73;101957.55;1730763;82;20928;-70
2022/03/23 07:51:47;;;;;;;28.98;21.25;;;;;;;11.53;37.54;101954.52;1731321;82;21027;-69
2022/03/23 07:54:14;;;;;;;31.23;19.98;;;;;;;11.69;37.00;101956.53;1732056;82;21064;-69
2022/03/23 07:56:42;;;;;;;28.98;21.07;;;;;;;11.82;36.98;101948.81;1731038;82;21094;-69
2022/03/23 07:59:09;;;;;;;30.72;21.80;;;;;;;11.92;36.59;101943.73;1731679;81;21845;-68
2022/03/23 08:01:36;;;;;;;30.10;21.48;;;;;;;12.06;36.06;101940.30;1697532;83;21068;-70
2022/03/23 08:04:08;;;;;;;30.43;20.15;;;;;;;12.18;35.96;101942.45;1738389;82;21103;-70
2022/03/23 08:06:35;;;;;;;30.43;20.30;;;;;;;12.35;35.99;101935.86;1739402;81;21527;-70
2022/03/23 08:09:03;;;;;;;31.23;21.52;;;;;;;12.53;35.77;101936.23;1739471;80;21067;-70
2022/03/23 08:11:33;;;;;;;29.65;21.82;;;;;;;12.68;35.60;101932.00;1741933;80;21152;-70
2022/03/23 08:14:00;;;;;;;27.30;20.08;;;;;;;12.81;34.82;101931.45;1735699;80;21099;-70
2022/03/23 08:16:27;;;;;;;28.70;21.62;;;;;;;12.94;34.49;101927.16;1721397;82;21066;-69
2022/03/23 08:18:58;;;;;;;29.65;21.42;;;;;;;13.05;34.57;101925.47;1752656;80;21010;-68
2022/03/23 08:21:28;;;;;;;28.90;21.37;;;;;;;13.20;34.00;101917.71;1758588;80;21102;-69
2022/03/23 08:23:57;;;;;;;33.18;23.18;;;;;;;13.33;33.84;101922.00;1758280;80;21031;-68
2022/03/23 08:26:27;;;;;;;29.42;20.57;;;;;;;13.45;33.50;101920.57;1764993;81;20991;-70
2022/03/23 08:28:56;;;;;;;25.08;19.32;;;;;;;13.57;33.12;101918.64;1759351;80;21057;-70
2022/03/23 08:31:23;;;;;;;29.02;21.02;;;;;;;13.72;33.03;101921.58;1776223;80;21117;-69
2022/03/23 08:33:51;;;;;;;30.90;21.50;;;;;;;13.86;32.72;101917.22;1756774;80;21026;-68
2022/03/23 08:36:18;;;;;;;28.35;19.27;;;;;;;14.01;32.72;101913.39;1762423;80;21789;-69
2022/03/23 08:38:46;;;;;;;30.17;21.23;;;;;;;14.13;32.47;101910.63;1754781;80;21030;-69
2022/03/23 08:41:14;;;;;;;29.32;20.45;;;;;;;14.26;32.61;101909.73;1762314;80;21018;-69
2022/03/23 08:43:41;;;;;;;29.13;20.17;;;;;;;14.44;32.31;101911.30;1759644;80;21564;-69
2022/03/23 08:46:08;;;;;;;28.13;19.60;;;;;;;14.61;31.91;101898.35;1756776;80;21260;-70
2022/03/23 08:48:36;;;;;;;27.27;19.30;;;;;;;14.76;31.58;101897.19;1761987;80;21872;-69
2022/03/23 08:51:04;;;;;;;27.20;20.53;;;;;;;14.90;31.54;101889.53;1761095;80;21153;-70
2022/03/23 08:53:32;;;;;;;26.87;19.87;;;;;;;15.04;31.21;101888.09;1765057;80;21421;-70
2022/03/23 08:56:00;;;;;;;25.13;18.57;;;;;;;15.16;31.06;101885.22;1766727;80;21071;-70
2022/03/23 08:58:28;;;;;;;28.73;19.67;;;;;;;15.28;30.85;101878.34;1757897;80;21276;-70
2022/03/23 09:00:55;;;;;;;26.30;18.20;;;;;;;15.38;30.37;101874.39;1756152;80;21178;-71
2022/03/23 09:03:24;;;;;;;23.57;17.37;;;;;;;15.47;30.23;101877.70;1760835;80;21359;-69
2022/03/23 09:05:53;;;;;;;21.93;17.03;;;;;;;15.59;29.73;101872.66;1757338;80;21709;-69
2022/03/23 09:08:21;;;;;;;20.43;15.47;;;;;;;15.66;29.46;101867.84;1759236;80;21218;-68
2022/03/23 09:10:49;;;;;;;22.30;15.83;;;;;;;15.74;29.69;101862.56;1758109;80;47147;-69
2022/03/23 09:13:19;;;;;;;22.43;16.60;;;;;;;15.86;29.91;101856.42;1760388;80;21179;-70
2022/03/23 09:15:48;;;;;;;21.17;14.47;;;;;;;16.02;29.44;101852.74;1759899;80;21238;-69
2022/03/23 09:18:15;;;;;;;24.43;16.47;;;;;;;16.09;28.79;101847.12;1758728;80;21823;-69
2022/03/23 09:20:43;;;;;;;21.63;14.97;;;;;;;16.14;29.11;101852.00;1762764;80;21825;-70
2022/03/23 09:23:12;;;;;;;20.93;14.83;;;;;;;16.25;29.01;101842.61;1763027;81;21270;-69
2022/03/23 09:25:40;;;;;;;21.03;14.60;;;;;;;16.37;29.17;101843.20;1766929;80;21686;-69
2022/03/23 09:28:09;;;;;;;18.93;13.97;;;;;;;16.50;29.03;101837.31;1777296;80;21328;-69
2022/03/23 09:30:37;;;;;;;20.07;13.97;;;;;;;16.64;28.73;101841.13;1766583;80;21279;-70
2022/03/23 09:33:06;;;;;;;17.07;13.50;;;;;;;16.72;28.89;101831.72;1760425;80;21660;-69
2022/03/23 09:35:34;;;;;;;20.07;13.77;;;;;;;16.74;28.22;101834.13;1755096;80;21315;-69
2022/03/23 09:38:03;;;;;;;18.73;14.13;;;;;;;16.74;28.22;101834.13;1756316;80;21814;-69
2022/03/23 09:40:31;;;;;;;21.23;14.27;;;;;;;16.77;28.44;101829.04;1760938;80;21928;-70
2022/03/23 09:43:05;;;;;;;18.93;13.37;;;;;;;16.90;28.65;101828.25;1755508;80;21888;-70
2022/03/23 09:48:05;;;;;;;16.57;11.90;;;;;;;17.26;28.33;101811.53;1767961;80;21430;-70
2022/03/23 09:50:34;;;;;;;16.57;11.87;;;;;;;17.55;27.25;101799.06;1756250;80;21872;-69
2022/03/23 09:53:02;;;;;;;17.07;12.47;;;;;;;17.55;27.25;101799.06;1774400;80;21389;-70
2022/03/23 09:55:30;;;;;;;17.57;12.97;;;;;;;17.68;26.96;101799.04;1777286;80;22258;-70
2022/03/23 09:57:59;;;;;;;16.17;12.40;;;;;;;17.78;27.04;101789.58;1772364;80;21703;-69
2022/03/23 10:00:29;;;;;;;16.13;12.93;;;;;;;17.91;26.89;101788.19;1763777;80;21513;-69
2022/03/23 10:03:34;;;;;;;19.70;15.07;;;;;;;18.00;26.76;101785.19;1756871;80;21700;-69
2022/03/23 10:06:55;;;;;;;20.73;15.50;;;;;;;18.10;26.85;101776.74;1766060;80;21753;-68
2022/03/23 10:09:40;;;;;;;21.40;14.77;;;;;;;18.14;26.47;101768.36;1757521;80;21693;-68
2022/03/23 10:12:53;;;;;;;24.00;16.30;;;;;;;18.20;26.24;101771.31;1756371;80;21758;-69
2022/03/23 10:16:03;;;;;;;19.17;14.38;;;;;;;18.25;26.13;101769.91;1759791;80;21689;-69
2022/03/23 10:18:56;;;;;;;18.60;14.20;;;;;;;18.30;25.98;101757.73;1741962;80;21570;-69
2022/03/23 10:21:28;;;;;;;22.23;15.07;;;;;;;18.28;26.05;101749.08;1765352;80;21870;-69
2022/03/23 10:24:05;;;;;;;21.82;16.35;;;;;;;18.64;25.77;101745.59;1765589;80;21674;-69
2022/03/23 10:26:36;;;;;;;20.87;16.17;;;;;;;18.64;25.77;101745.59;1757910;80;20964;-70
2022/03/23 10:29:07;;;;;;;22.17;15.73;;;;;;;18.74;25.48;101729.84;1757725;80;21709;-69
2022/03/23 10:31:34;;;;;;;;;;;;;;;18.74;25.48;101729.84;1735805;80;21197;-69
2022/03/23 10:34:08;;;;;;;13.37;9.10;;;;;;;18.80;24.60;101721.95;1763191;80;20170;-69
2022/03/23 10:36:48;;;;;;;14.40;11.03;;;;;;;18.79;24.22;101727.11;1759491;80;21734;-68
2022/03/23 10:39:16;;;;;;;18.40;13.83;;;;;;;18.72;23.89;101717.97;1765729;80;21678;-70
2022/03/23 10:41:44;;;;;;;18.43;13.33;;;;;;;18.72;24.52;101707.66;1758666;80;21695;-70
2022/03/23 10:44:16;;;;;;;14.90;10.10;;;;;;;18.72;24.52;101707.66;1737043;80;21607;-70
2022/03/23 10:46:44;;;;;;;15.47;9.83;;;;;;;18.78;24.24;101703.83;1762120;80;21028;-71
2022/03/23 10:49:11;;;;;;;15.17;9.67;;;;;;;18.81;24.14;101699.20;1762054;80;20996;-69
2022/03/23 10:51:39;;;;;;;14.67;9.30;;;;;;;18.85;23.70;101701.59;1758159;80;20948;-69
2022/03/23 10:54:17;;;;;;;14.33;7.90;;;;;;;18.88;23.69;101690.75;1750816;80;21038;-70
2022/03/23 10:56:48;;;;;;;12.88;7.70;;;;;;;18.88;23.69;101690.75;1761687;80;21529;-68
2022/03/23 10:59:25;;;;;;;12.30;7.60;;;;;;;18.91;23.37;101681.50;1759180;80;20940;-70
2022/03/23 11:02:04;;;;;;;8.43;5.87;;;;;;;18.91;23.30;101684.21;1756004;80;21063;-71
2022/03/23 11:04:36;;;;;;;17.93;11.27;;;;;;;18.91;23.51;101674.73;1746857;82;20963;-71
2022/03/23 11:07:06;;;;;;;18.50;13.03;;;;;;;18.91;23.77;101673.38;1752585;80;22184;-71
2022/03/23 11:18:11;;;;;;;23.10;16.93;;;;;;;19.13;23.76;101651.23;1771591;80;22283;-70
2022/03/23 11:20:56;;;;;;;31.43;20.57;;;;;;;19.16;23.89;101642.53;1777469;80;21039;-70
2022/03/23 11:23:35;;;;;;;32.00;22.77;;;;;;;19.22;24.29;101641.94;1774550;80;21676;-69
2022/03/23 11:26:10;;;;;;;45.67;32.00;;;;;;;19.32;23.96;101636.95;1758893;80;20995;-69
2022/03/23 11:28:42;;;;;;;50.53;36.47;;;;;;;19.36;24.04;101637.98;1760816;80;22102;-68
2022/03/23 11:31:10;;;;;;;;;;;;;;;19.37;23.75;101630.90;1771137;80;21268;-70
2022/03/23 11:33:40;;;;;;;59.43;40.87;;;;;;;19.35;23.98;101619.56;1777366;80;20136;-70
2022/03/23 11:36:11;;;;;;;62.47;44.53;;;;;;;19.35;24.28;101620.12;1772438;80;21244;-70
2022/03/23 11:38:40;;;;;;;70.43;45.17;;;;;;;19.36;24.09;101621.17;1736063;82;21154;-68
2022/03/23 11:41:09;;;;;;;64.13;43.93;;;;;;;19.36;24.02;101616.30;1738316;82;21071;-71
2022/03/23 11:43:37;;;;;;;68.10;45.87;;;;;;;19.34;24.00;101609.80;1744648;81;20981;-69
2022/03/23 11:46:05;;;;;;;59.87;44.37;;;;;;;19.27;24.16;101606.65;1769716;80;21122;-70